Aviation Digital Data Service (ADDS)

Output produced by METARs form (0058 UTC 22 September 2017)
found at http://www.aviationweather.gov/adds/metars/
 
TAF MDST 212200Z 2200/2224 26015KT 4000 RAFEW010CB BKN012 OVC070 
     PROB40 
     TEMPO 2200/2206 0500 +TSRA SCT006 BKN008 OVC070 
     BECMG 2202/2204 33019G35KT
       
TAF MDPP 212200Z 2200/2224 28020KT 5000 RA FEW012CB BKN012 OVC070 
     PROB40 2200/2206 3000 +TSRA FEW012CB BKN012 OVC070
       
TAF MDLR 212200Z 2200/2224 22015G25KT 7000 ?RA FEW014CB SCT016 BKN070 
     TEMPO 2200/2206 5000 TSRA FEW012CB BKN014 OVC070 
     BECMG 2202/2204 19017G25KT 
     TEMPO 2207/2213 6000 TSRA FEW012CB BKN014 BKN070
       
TAF MDSD 212200Z 2200/2224 24021G35KT 6000 TSRA SCT008CB BKN010 OVC070 
     TEMPO 2200/2206 2000 +TSRA SCT008CB BKN010 OVC070
       
TAF MDBH 212200Z 2200/2224 27014G25KT 7000 TSRA FEW016CB BKN016 OVC070 
     BECMG 2204/2206 00000KT
       
TAF MDPC 212200Z 2200/2224 18020G30KT 9999 FEW010CB BKN014 OVC070 
     PROB40 2202/2208 6000 -TSRA FEW010CB BKN010 OVC060